sensor_id;sensor_type;location;lat;lon;timestamp;pressure;altitude;pressure_sealevel;temperature
31528;BMP280;10206;48.012;10.030;2024-01-07T00:01:30;93941.75;;;5.37
31528;BMP280;10206;48.012;10.030;2024-01-07T00:03:56;93939.09;;;5.29
31528;BMP280;10206;48.012;10.030;2024-01-07T00:06:22;93934.72;;;5.34
31528;BMP280;10206;48.012;10.030;2024-01-07T00:08:48;93931.88;;;5.24
31528;BMP280;10206;48.012;10.030;2024-01-07T00:11:14;93933.56;;;5.20
31528;BMP280;10206;48.012;10.030;2024-01-07T00:13:41;93940.88;;;5.27
31528;BMP280;10206;48.012;10.030;2024-01-07T00:16:07;93936.56;;;5.24
31528;BMP280;10206;48.012;10.030;2024-01-07T00:18:33;93933.63;;;5.37
31528;BMP280;10206;48.012;10.030;2024-01-07T00:20:59;93929.06;;;5.47
31528;BMP280;10206;48.012;10.030;2024-01-07T00:23:25;93930.53;;;5.40
31528;BMP280;10206;48.012;10.030;2024-01-07T00:25:51;93930.97;;;5.29
31528;BMP280;10206;48.012;10.030;2024-01-07T00:28:18;93930.25;;;5.29
31528;BMP280;10206;48.012;10.030;2024-01-07T00:30:44;93937.88;;;5.23
31528;BMP280;10206;48.012;10.030;2024-01-07T00:33:11;93931.22;;;5.16
31528;BMP280;10206;48.012;10.030;2024-01-07T00:35:37;93937.28;;;5.24
31528;BMP280;10206;48.012;10.030;2024-01-07T00:38:03;93937.88;;;5.23
31528;BMP280;10206;48.012;10.030;2024-01-07T00:40:29;93939.25;;;5.24
31528;BMP280;10206;48.012;10.030;2024-01-07T00:42:55;93935.31;;;5.25
31528;BMP280;10206;48.012;10.030;2024-01-07T00:45:21;93930.25;;;5.29
31528;BMP280;10206;48.012;10.030;2024-01-07T00:47:47;93931.56;;;5.52
31528;BMP280;10206;48.012;10.030;2024-01-07T00:50:13;93922.81;;;5.37
31528;BMP280;10206;48.012;10.030;2024-01-07T00:52:40;93934.13;;;5.43
31528;BMP280;10206;48.012;10.030;2024-01-07T00:55:08;93933.25;;;5.40
31528;BMP280;10206;48.012;10.030;2024-01-07T00:57:34;93930.16;;;5.44
31528;BMP280;10206;48.012;10.030;2024-01-07T01:00:04;93935.16;;;5.55
31528;BMP280;10206;48.012;10.030;2024-01-07T01:02:30;93928.72;;;5.43
31528;BMP280;10206;48.012;10.030;2024-01-07T01:04:56;93938.16;;;5.34
31528;BMP280;10206;48.012;10.030;2024-01-07T01:07:22;93936.47;;;5.46
31528;BMP280;10206;48.012;10.030;2024-01-07T01:09:48;93935.19;;;5.47
31528;BMP280;10206;48.012;10.030;2024-01-07T01:12:15;93942.56;;;5.54
31528;BMP280;10206;48.012;10.030;2024-01-07T01:14:41;93937.75;;;5.45
31528;BMP280;10206;48.012;10.030;2024-01-07T01:17:07;93934.47;;;5.47
31528;BMP280;10206;48.012;10.030;2024-01-07T01:19:33;93944.06;;;5.40
31528;BMP280;10206;48.012;10.030;2024-01-07T01:21:59;93941.34;;;5.40
31528;BMP280;10206;48.012;10.030;2024-01-07T01:24:25;93951.16;;;5.28
31528;BMP280;10206;48.012;10.030;2024-01-07T01:26:52;93940.69;;;5.25
31528;BMP280;10206;48.012;10.030;2024-01-07T01:29:18;93944.66;;;5.24
31528;BMP280;10206;48.012;10.030;2024-01-07T01:31:44;93944.13;;;5.25
31528;BMP280;10206;48.012;10.030;2024-01-07T01:34:10;93938.88;;;5.27
31528;BMP280;10206;48.012;10.030;2024-01-07T01:36:36;93949.03;;;5.19
31528;BMP280;10206;48.012;10.030;2024-01-07T01:39:02;93947.22;;;5.14
31528;BMP280;10206;48.012;10.030;2024-01-07T01:41:29;93948.69;;;5.15
31528;BMP280;10206;48.012;10.030;2024-01-07T01:43:59;93954.53;;;5.36
31528;BMP280;10206;48.012;10.030;2024-01-07T01:46:26;93947.97;;;5.15
31528;BMP280;10206;48.012;10.030;2024-01-07T01:48:52;93953.50;;;5.24
31528;BMP280;10206;48.012;10.030;2024-01-07T01:51:19;93941.81;;;5.22
31528;BMP280;10206;48.012;10.030;2024-01-07T01:53:46;93945.00;;;5.35
31528;BMP280;10206;48.012;10.030;2024-01-07T01:56:14;93948.44;;;5.36
31528;BMP280;10206;48.012;10.030;2024-01-07T01:58:43;93947.56;;;5.26
31528;BMP280;10206;48.012;10.030;2024-01-07T02:01:09;93951.75;;;5.12
31528;BMP280;10206;48.012;10.030;2024-01-07T02:03:35;93947.34;;;5.31
31528;BMP280;10206;48.012;10.030;2024-01-07T02:06:01;93946.81;;;5.33
31528;BMP280;10206;48.012;10.030;2024-01-07T02:08:28;93950.94;;;5.34
31528;BMP280;10206;48.012;10.030;2024-01-07T02:10:55;93949.31;;;5.38
31528;BMP280;10206;48.012;10.030;2024-01-07T02:13:21;93940.56;;;5.23
31528;BMP280;10206;48.012;10.030;2024-01-07T02:15:47;93949.94;;;5.14
31528;BMP280;10206;48.012;10.030;2024-01-07T02:18:13;93942.75;;;5.09
31528;BMP280;10206;48.012;10.030;2024-01-07T02:20:40;93943.81;;;5.21
31528;BMP280;10206;48.012;10.030;2024-01-07T02:23:06;93944.53;;;5.22
31528;BMP280;10206;48.012;10.030;2024-01-07T02:25:36;93947.53;;;5.33
31528;BMP280;10206;48.012;10.030;2024-01-07T02:28:02;93939.13;;;5.22
31528;BMP280;10206;48.012;10.030;2024-01-07T02:30:28;93935.81;;;5.31
31528;BMP280;10206;48.012;10.030;2024-01-07T02:32:54;93942.69;;;5.24
31528;BMP280;10206;48.012;10.030;2024-01-07T02:35:20;93942.88;;;5.26
31528;BMP280;10206;48.012;10.030;2024-01-07T02:37:46;93936.91;;;5.28
31528;BMP280;10206;48.012;10.030;2024-01-07T02:40:12;93942.69;;;5.24
31528;BMP280;10206;48.012;10.030;2024-01-07T02:42:38;93946.47;;;5.29
31528;BMP280;10206;48.012;10.030;2024-01-07T02:45:05;93945.09;;;5.13
31528;BMP280;10206;48.012;10.030;2024-01-07T02:47:31;93950.06;;;5.24
31528;BMP280;10206;48.012;10.030;2024-01-07T02:49:57;93940.34;;;5.28
31528;BMP280;10206;48.012;10.030;2024-01-07T02:52:23;93947.34;;;5.31
31528;BMP280;10206;48.012;10.030;2024-01-07T02:54:49;93947.59;;;5.18
31528;BMP280;10206;48.012;10.030;2024-01-07T02:57:15;93938.94;;;5.20
31528;BMP280;10206;48.012;10.030;2024-01-07T02:59:41;93941.50;;;5.10
31528;BMP280;10206;48.012;10.030;2024-01-07T03:02:08;93942.19;;;5.10
31528;BMP280;10206;48.012;10.030;2024-01-07T03:04:34;93944.13;;;5.25
31528;BMP280;10206;48.012;10.030;2024-01-07T03:07:00;93934.19;;;5.35
31528;BMP280;10206;48.012;10.030;2024-01-07T03:09:26;93934.19;;;5.35
31528;BMP280;10206;48.012;10.030;2024-01-07T03:11:52;93940.50;;;5.38
31528;BMP280;10206;48.012;10.030;2024-01-07T03:14:20;93942.88;;;5.26
31528;BMP280;10206;48.012;10.030;2024-01-07T03:16:47;93935.09;;;5.30
31528;BMP280;10206;48.012;10.030;2024-01-07T03:19:13;93944.66;;;5.24
31528;BMP280;10206;48.012;10.030;2024-01-07T03:21:39;93937.88;;;5.23
31528;BMP280;10206;48.012;10.030;2024-01-07T03:24:06;93938.56;;;5.23
31528;BMP280;10206;48.012;10.030;2024-01-07T03:26:32;93939.63;;;5.28
31528;BMP280;10206;48.012;10.030;2024-01-07T03:28:59;93933.13;;;5.31
31528;BMP280;10206;48.012;10.030;2024-01-07T03:31:28;93941.06;;;5.29
31528;BMP280;10206;48.012;10.030;2024-01-07T03:33:55;93937.06;;;5.37
31528;BMP280;10206;48.012;10.030;2024-01-07T03:36:21;93936.75;;;5.26
31528;BMP280;10206;48.012;10.030;2024-01-07T03:38:47;93938.22;;;5.19
31528;BMP280;10206;48.012;10.030;2024-01-07T03:41:20;93938.22;;;5.12
31528;BMP280;10206;48.012;10.030;2024-01-07T03:43:47;93944.34;;;5.20
31528;BMP280;10206;48.012;10.030;2024-01-07T03:46:14;93941.78;;;5.29
31528;BMP280;10206;48.012;10.030;2024-01-07T03:48:41;93941.81;;;5.22
31528;BMP280;10206;48.012;10.030;2024-01-07T03:51:07;93942.34;;;5.20
31528;BMP280;10206;48.012;10.030;2024-01-07T03:53:33;93940.56;;;5.15
31528;BMP280;10206;48.012;10.030;2024-01-07T03:55:59;93949.81;;;5.04
31528;BMP280;10206;48.012;10.030;2024-01-07T03:58:26;93944.00;;;5.16
31528;BMP280;10206;48.012;10.030;2024-01-07T04:00:52;93948.88;;;5.09
31528;BMP280;10206;48.012;10.030;2024-01-07T04:03:18;93942.91;;;5.11
31528;BMP280;10206;48.012;10.030;2024-01-07T04:05:44;93941.66;;;5.12
31528;BMP280;10206;48.012;10.030;2024-01-07T04:08:13;93942.84;;;4.86
31528;BMP280;10206;48.012;10.030;2024-01-07T04:10:41;93943.34;;;4.92
31528;BMP280;10206;48.012;10.030;2024-01-07T04:13:08;93950.44;;;4.58
31528;BMP280;10206;48.012;10.030;2024-01-07T04:15:34;93950.53;;;4.97
31528;BMP280;10206;48.012;10.030;2024-01-07T04:18:06;93949.47;;;5.00
31528;BMP280;10206;48.012;10.030;2024-01-07T04:20:32;93951.31;;;4.83
31528;BMP280;10206;48.012;10.030;2024-01-07T04:22:58;93958.47;;;5.03
31528;BMP280;10206;48.012;10.030;2024-01-07T04:25:25;93958.06;;;5.06
31528;BMP280;10206;48.012;10.030;2024-01-07T04:27:51;93957.75;;;5.02
31528;BMP280;10206;48.012;10.030;2024-01-07T04:30:17;93965.84;;;4.95
31528;BMP280;10206;48.012;10.030;2024-01-07T04:32:43;93961.16;;;5.03
31528;BMP280;10206;48.012;10.030;2024-01-07T04:35:09;93965.47;;;5.06
31528;BMP280;10206;48.012;10.030;2024-01-07T04:37:37;93968.00;;;4.96
31528;BMP280;10206;48.012;10.030;2024-01-07T04:40:03;93967.50;;;4.75
31528;BMP280;10206;48.012;10.030;2024-01-07T04:42:29;93968.41;;;4.85
31528;BMP280;10206;48.012;10.030;2024-01-07T04:44:55;93971.75;;;5.08
31528;BMP280;10206;48.012;10.030;2024-01-07T04:47:30;93977.53;;;5.05
31528;BMP280;10206;48.012;10.030;2024-01-07T04:49:57;93968.91;;;4.91
31528;BMP280;10206;48.012;10.030;2024-01-07T04:52:23;93979.88;;;5.01
31528;BMP280;10206;48.012;10.030;2024-01-07T04:54:53;93981.53;;;4.96
31528;BMP280;10206;48.012;10.030;2024-01-07T04:57:20;93971.47;;;4.74
31528;BMP280;10206;48.012;10.030;2024-01-07T04:59:47;93981.38;;;4.87
31528;BMP280;10206;48.012;10.030;2024-01-07T05:02:13;93974.69;;;5.03
31528;BMP280;10206;48.012;10.030;2024-01-07T05:04:40;93978.13;;;4.88
31528;BMP280;10206;48.012;10.030;2024-01-07T05:07:06;93988.00;;;5.01
31528;BMP280;10206;48.012;10.030;2024-01-07T05:09:33;93987.13;;;4.83
31528;BMP280;10206;48.012;10.030;2024-01-07T05:11:59;93990.53;;;4.91
31528;BMP280;10206;48.012;10.030;2024-01-07T05:14:26;93985.88;;;4.84
31528;BMP280;10206;48.012;10.030;2024-01-07T05:16:53;93992.50;;;4.98
31528;BMP280;10206;48.012;10.030;2024-01-07T05:19:20;93987.63;;;5.04
31528;BMP280;10206;48.012;10.030;2024-01-07T05:21:46;93992.34;;;4.96
31528;BMP280;10206;48.012;10.030;2024-01-07T05:24:12;93994.69;;;5.00
31528;BMP280;10206;48.012;10.030;2024-01-07T05:26:39;94002.09;;;4.84
31528;BMP280;10206;48.012;10.030;2024-01-07T05:29:06;93995.03;;;4.81
31528;BMP280;10206;48.012;10.030;2024-01-07T05:31:32;94001.53;;;4.93
31528;BMP280;10206;48.012;10.030;2024-01-07T05:33:58;93998.47;;;4.97
31528;BMP280;10206;48.012;10.030;2024-01-07T05:36:24;94001.53;;;4.93
31528;BMP280;10206;48.012;10.030;2024-01-07T05:38:50;93997.22;;;4.90
31528;BMP280;10206;48.012;10.030;2024-01-07T05:41:16;94000.78;;;4.93
31528;BMP280;10206;48.012;10.030;2024-01-07T05:43:43;94003.50;;;4.93
31528;BMP280;10206;48.012;10.030;2024-01-07T05:46:09;94004.75;;;4.92
31528;BMP280;10206;48.012;10.030;2024-01-07T05:51:10;94006.00;;;4.98
31528;BMP280;10206;48.012;10.030;2024-01-07T05:53:36;94012.13;;;4.91
31528;BMP280;10206;48.012;10.030;2024-01-07T05:56:02;94015.00;;;5.08
31528;BMP280;10206;48.012;10.030;2024-01-07T05:58:29;94018.63;;;4.96
31528;BMP280;10206;48.012;10.030;2024-01-07T06:00:55;94005.31;;;4.90
31528;BMP280;10206;48.012;10.030;2024-01-07T06:03:22;94014.13;;;4.98
31528;BMP280;10206;48.012;10.030;2024-01-07T06:05:48;94016.66;;;4.89
31528;BMP280;10206;48.012;10.030;2024-01-07T06:08:14;94012.13;;;4.91
31528;BMP280;10206;48.012;10.030;2024-01-07T06:10:40;94017.72;;;4.93
31528;BMP280;10206;48.012;10.030;2024-01-07T06:13:06;94012.88;;;4.99
31528;BMP280;10206;48.012;10.030;2024-01-07T06:15:33;94013.94;;;4.96
31528;BMP280;10206;48.012;10.030;2024-01-07T06:17:59;94021.50;;;4.90
31528;BMP280;10206;48.012;10.030;2024-01-07T06:20:25;94017.53;;;4.91
31528;BMP280;10206;48.012;10.030;2024-01-07T06:22:51;94015.94;;;4.73
31528;BMP280;10206;48.012;10.030;2024-01-07T06:25:17;94024.03;;;4.88
31528;BMP280;10206;48.012;10.030;2024-01-07T06:27:43;94030.00;;;4.79
31528;BMP280;10206;48.012;10.030;2024-01-07T06:30:10;94022.25;;;4.83
31528;BMP280;10206;48.012;10.030;2024-01-07T06:32:36;94026.91;;;4.90
31528;BMP280;10206;48.012;10.030;2024-01-07T06:35:02;94030.94;;;4.52
31528;BMP280;10206;48.012;10.030;2024-01-07T06:37:31;94033.06;;;4.83
31528;BMP280;10206;48.012;10.030;2024-01-07T06:39:57;94033.44;;;4.87
31528;BMP280;10206;48.012;10.030;2024-01-07T06:42:24;94028.94;;;4.52
31528;BMP280;10206;48.012;10.030;2024-01-07T06:44:50;94032.72;;;4.64
31528;BMP280;10206;48.012;10.030;2024-01-07T06:47:16;94036.47;;;4.76
31528;BMP280;10206;48.012;10.030;2024-01-07T06:49:43;94030.00;;;4.49
31528;BMP280;10206;48.012;10.030;2024-01-07T06:52:09;94034.34;;;4.67
31528;BMP280;10206;48.012;10.030;2024-01-07T06:54:35;94041.53;;;4.57
31528;BMP280;10206;48.012;10.030;2024-01-07T06:57:01;94044.75;;;4.56
31528;BMP280;10206;48.012;10.030;2024-01-07T06:59:28;94041.69;;;4.74
31528;BMP280;10206;48.012;10.030;2024-01-07T07:01:54;94051.06;;;4.73
31528;BMP280;10206;48.012;10.030;2024-01-07T07:04:22;94053.03;;;4.65
31528;BMP280;10206;48.012;10.030;2024-01-07T07:06:48;94045.84;;;4.45
31528;BMP280;10206;48.012;10.030;2024-01-07T07:09:14;94041.72;;;4.67
31528;BMP280;10206;48.012;10.030;2024-01-07T07:11:41;94049.44;;;4.78
31528;BMP280;10206;48.012;10.030;2024-01-07T07:14:07;94046.53;;;4.38
31528;BMP280;10206;48.012;10.030;2024-01-07T07:16:33;94057.56;;;4.70
31528;BMP280;10206;48.012;10.030;2024-01-07T07:18:59;94053.22;;;4.60
31528;BMP280;10206;48.012;10.030;2024-01-07T07:21:25;94068.72;;;4.89
31528;BMP280;10206;48.012;10.030;2024-01-07T07:23:53;94068.88;;;4.91
31528;BMP280;10206;48.012;10.030;2024-01-07T07:26:19;94065.47;;;4.83
31528;BMP280;10206;48.012;10.030;2024-01-07T07:28:45;94063.66;;;4.93
31528;BMP280;10206;48.012;10.030;2024-01-07T07:31:12;94078.44;;;4.85
31528;BMP280;10206;48.012;10.030;2024-01-07T07:33:41;94074.28;;;4.91
31528;BMP280;10206;48.012;10.030;2024-01-07T07:36:08;94081.50;;;4.89
31528;BMP280;10206;48.012;10.030;2024-01-07T07:38:34;94077.16;;;4.63
31528;BMP280;10206;48.012;10.030;2024-01-07T07:41:00;94075.75;;;4.77
31528;BMP280;10206;48.012;10.030;2024-01-07T07:43:26;94078.59;;;4.94
31528;BMP280;10206;48.012;10.030;2024-01-07T07:45:52;94085.47;;;5.03
31528;BMP280;10206;48.012;10.030;2024-01-07T07:48:19;94083.84;;;4.85
31528;BMP280;10206;48.012;10.030;2024-01-07T07:50:45;94086.00;;;4.79
31528;BMP280;10206;48.012;10.030;2024-01-07T07:53:11;94089.94;;;4.55
31528;BMP280;10206;48.012;10.030;2024-01-07T07:55:37;94089.97;;;4.78
31528;BMP280;10206;48.012;10.030;2024-01-07T07:58:04;94091.38;;;4.79
31528;BMP280;10206;48.012;10.030;2024-01-07T08:00:30;94095.53;;;4.95
31528;BMP280;10206;48.012;10.030;2024-01-07T08:02:56;94103.63;;;4.72
31528;BMP280;10206;48.012;10.030;2024-01-07T08:05:22;94094.44;;;4.75
31528;BMP280;10206;48.012;10.030;2024-01-07T08:07:48;94092.09;;;4.94
31528;BMP280;10206;48.012;10.030;2024-01-07T08:10:14;94095.19;;;4.68
31528;BMP280;10206;48.012;10.030;2024-01-07T08:12:40;94091.41;;;4.86
31528;BMP280;10206;48.012;10.030;2024-01-07T08:15:07;94101.47;;;5.01
31528;BMP280;10206;48.012;10.030;2024-01-07T08:17:33;94095.00;;;4.81
31528;BMP280;10206;48.012;10.030;2024-01-07T08:19:59;94108.84;;;4.63
31528;BMP280;10206;48.012;10.030;2024-01-07T08:22:27;94102.94;;;4.87
31528;BMP280;10206;48.012;10.030;2024-01-07T08:24:53;94106.53;;;4.89
31528;BMP280;10206;48.012;10.030;2024-01-07T08:27:20;94111.72;;;4.72
31528;BMP280;10206;48.012;10.030;2024-01-07T08:29:46;94114.63;;;4.74
31528;BMP280;10206;48.012;10.030;2024-01-07T08:32:13;94109.94;;;4.82
31528;BMP280;10206;48.012;10.030;2024-01-07T08:34:39;94113.91;;;4.81
31528;BMP280;10206;48.012;10.030;2024-01-07T08:37:06;94116.06;;;4.98
31528;BMP280;10206;48.012;10.030;2024-01-07T08:39:33;94115.91;;;4.96
31528;BMP280;10206;48.012;10.030;2024-01-07T08:41:59;94120.19;;;4.91
31528;BMP280;10206;48.012;10.030;2024-01-07T08:44:25;94118.03;;;4.75
31528;BMP280;10206;48.012;10.030;2024-01-07T08:46:51;94122.34;;;5.08
31528;BMP280;10206;48.012;10.030;2024-01-07T08:49:17;94122.34;;;5.08
31528;BMP280;10206;48.012;10.030;2024-01-07T08:51:43;94126.69;;;5.11
31528;BMP280;10206;48.012;10.030;2024-01-07T08:54:10;94125.78;;;4.78
31528;BMP280;10206;48.012;10.030;2024-01-07T08:56:36;94130.63;;;4.72
31528;BMP280;10206;48.012;10.030;2024-01-07T08:59:02;94131.22;;;4.71
31528;BMP280;10206;48.012;10.030;2024-01-07T09:01:30;94131.22;;;4.71
31528;BMP280;10206;48.012;10.030;2024-01-07T09:03:56;94133.81;;;4.40
31528;BMP280;10206;48.012;10.030;2024-01-07T09:06:22;94140.50;;;4.32
31528;BMP280;10206;48.012;10.030;2024-01-07T09:08:48;94152.53;;;4.31
31528;BMP280;10206;48.012;10.030;2024-01-07T09:11:14;94152.53;;;4.31
31528;BMP280;10206;48.012;10.030;2024-01-07T09:13:42;94149.50;;;4.42
31528;BMP280;10206;48.012;10.030;2024-01-07T09:16:08;94156.88;;;4.41
31528;BMP280;10206;48.012;10.030;2024-01-07T09:18:37;94154.41;;;4.74
31528;BMP280;10206;48.012;10.030;2024-01-07T09:21:03;94162.00;;;4.68
31528;BMP280;10206;48.012;10.030;2024-01-07T09:23:29;94158.06;;;4.84
31528;BMP280;10206;48.012;10.030;2024-01-07T09:25:56;94159.47;;;4.77
31528;BMP280;10206;48.012;10.030;2024-01-07T09:28:22;94165.56;;;4.63
31528;BMP280;10206;48.012;10.030;2024-01-07T09:30:48;94167.03;;;4.71
31528;BMP280;10206;48.012;10.030;2024-01-07T09:33:14;94172.75;;;4.60
31528;BMP280;10206;48.012;10.030;2024-01-07T09:35:41;94173.31;;;4.66
31528;BMP280;10206;48.012;10.030;2024-01-07T09:38:07;94182.84;;;4.60
31528;BMP280;10206;48.012;10.030;2024-01-07T09:40:33;94175.28;;;4.51
31528;BMP280;10206;48.012;10.030;2024-01-07T09:42:59;94183.94;;;4.64
31528;BMP280;10206;48.012;10.030;2024-01-07T09:45:25;94172.50;;;4.35
31528;BMP280;10206;48.012;10.030;2024-01-07T09:47:52;94180.84;;;4.53
31528;BMP280;10206;48.012;10.030;2024-01-07T09:50:18;94180.84;;;4.53
31528;BMP280;10206;48.012;10.030;2024-01-07T09:52:44;94182.31;;;4.76
31528;BMP280;10206;48.012;10.030;2024-01-07T09:55:18;94179.88;;;4.35
31528;BMP280;10206;48.012;10.030;2024-01-07T09:57:46;94190.09;;;4.80
31528;BMP280;10206;48.012;10.030;2024-01-07T10:00:13;94185.56;;;4.67
31528;BMP280;10206;48.012;10.030;2024-01-07T10:02:39;94185.03;;;4.91
31528;BMP280;10206;48.012;10.030;2024-01-07T10:05:07;94182.53;;;4.86
31528;BMP280;10206;48.012;10.030;2024-01-07T10:07:33;94183.59;;;4.68
31528;BMP280;10206;48.012;10.030;2024-01-07T10:10:14;94183.38;;;4.58
31528;BMP280;10206;48.012;10.030;2024-01-07T10:12:40;94187.34;;;4.72
31528;BMP280;10206;48.012;10.030;2024-01-07T10:15:06;94188.06;;;4.14
31528;BMP280;10206;48.012;10.030;2024-01-07T10:17:33;94184.88;;;4.23
31528;BMP280;10206;48.012;10.030;2024-01-07T10:19:59;94187.09;;;4.32
31528;BMP280;10206;48.012;10.030;2024-01-07T10:22:27;94192.88;;;4.44
31528;BMP280;10206;48.012;10.030;2024-01-07T10:24:53;94190.41;;;4.10
31528;BMP280;10206;48.012;10.030;2024-01-07T10:27:19;94185.09;;;3.89
31528;BMP280;10206;48.012;10.030;2024-01-07T10:29:48;94191.44;;;4.00
31528;BMP280;10206;48.012;10.030;2024-01-07T10:32:21;94190.56;;;4.05
31528;BMP280;10206;48.012;10.030;2024-01-07T10:34:47;94189.88;;;4.12
31528;BMP280;10206;48.012;10.030;2024-01-07T10:37:14;94198.84;;;4.07
31528;BMP280;10206;48.012;10.030;2024-01-07T10:39:40;94188.28;;;4.24
31528;BMP280;10206;48.012;10.030;2024-01-07T10:42:07;94189.91;;;3.83
31528;BMP280;10206;48.012;10.030;2024-01-07T10:44:34;94194.09;;;4.28
31528;BMP280;10206;48.012;10.030;2024-01-07T10:47:06;94193.56;;;3.94
31528;BMP280;10206;48.012;10.030;2024-01-07T10:49:32;94190.56;;;4.05
31528;BMP280;10206;48.012;10.030;2024-01-07T10:52:04;94187.22;;;4.27
31528;BMP280;10206;48.012;10.030;2024-01-07T10:54:31;94194.97;;;3.95
31528;BMP280;10206;48.012;10.030;2024-01-07T10:57:04;94193.00;;;3.95
31528;BMP280;10206;48.012;10.030;2024-01-07T10:59:32;94191.16;;;3.54
31528;BMP280;10206;48.012;10.030;2024-01-07T11:01:59;94199.19;;;3.67
31528;BMP280;10206;48.012;10.030;2024-01-07T11:07:34;94186.56;;;3.98
31528;BMP280;10206;48.012;10.030;2024-01-07T11:10:20;94196.94;;;3.94
31528;BMP280;10206;48.012;10.030;2024-01-07T11:12:57;94204.41;;;3.73
31528;BMP280;10206;48.012;10.030;2024-01-07T11:18:23;94194.53;;;4.04
31528;BMP280;10206;48.012;10.030;2024-01-07T11:20:49;94188.94;;;3.73
31528;BMP280;10206;48.012;10.030;2024-01-07T11:23:36;94200.03;;;3.91
31528;BMP280;10206;48.012;10.030;2024-01-07T11:26:04;94192.06;;;4.21
31528;BMP280;10206;48.012;10.030;2024-01-07T11:28:49;94192.88;;;4.44
31528;BMP280;10206;48.012;10.030;2024-01-07T11:31:18;94191.75;;;3.88
31528;BMP280;10206;48.012;10.030;2024-01-07T11:33:46;94183.53;;;4.02
31528;BMP280;10206;48.012;10.030;2024-01-07T11:36:16;94189.72;;;3.81
31528;BMP280;10206;48.012;10.030;2024-01-07T11:38:48;94194.47;;;3.96
31528;BMP280;10206;48.012;10.030;2024-01-07T11:41:16;94195.34;;;3.91
31528;BMP280;10206;48.012;10.030;2024-01-07T11:43:56;94203.66;;;3.65
31528;BMP280;10206;48.012;10.030;2024-01-07T11:46:28;94195.16;;;3.89
31528;BMP280;10206;48.012;10.030;2024-01-07T11:48:58;94203.59;;;3.57
31528;BMP280;10206;48.012;10.030;2024-01-07T11:51:28;94198.66;;;3.76
31528;BMP280;10206;48.012;10.030;2024-01-07T11:53:56;94196.22;;;3.86
31528;BMP280;10206;48.012;10.030;2024-01-07T11:56:24;94191.63;;;3.73
31528;BMP280;10206;48.012;10.030;2024-01-07T11:58:50;94202.75;;;3.98
31528;BMP280;10206;48.012;10.030;2024-01-07T12:01:16;94201.94;;;3.54
31528;BMP280;10206;48.012;10.030;2024-01-07T12:03:46;94203.19;;;4.10
31528;BMP280;10206;48.012;10.030;2024-01-07T12:06:12;94200.44;;;4.02
31528;BMP280;10206;48.012;10.030;2024-01-07T12:08:40;94194.19;;;3.79
31528;BMP280;10206;48.012;10.030;2024-01-07T12:11:07;94201.28;;;3.89
31528;BMP280;10206;48.012;10.030;2024-01-07T12:13:34;94210.88;;;3.70
31528;BMP280;10206;48.012;10.030;2024-01-07T12:16:00;94211.16;;;3.87
31528;BMP280;10206;48.012;10.030;2024-01-07T12:18:27;94215.81;;;3.58
31528;BMP280;10206;48.012;10.030;2024-01-07T12:21:00;94206.50;;;3.87
31528;BMP280;10206;48.012;10.030;2024-01-07T12:23:26;94218.28;;;3.77
31528;BMP280;10206;48.012;10.030;2024-01-07T12:25:53;94211.38;;;3.97
31528;BMP280;10206;48.012;10.030;2024-01-07T12:28:19;94207.66;;;3.79
31528;BMP280;10206;48.012;10.030;2024-01-07T12:30:49;94210.28;;;3.64
31528;BMP280;10206;48.012;10.030;2024-01-07T12:33:19;94213.78;;;3.79
31528;BMP280;10206;48.012;10.030;2024-01-07T12:35:47;94206.94;;;3.78
31528;BMP280;10206;48.012;10.030;2024-01-07T12:38:13;94214.84;;;4.05
31528;BMP280;10206;48.012;10.030;2024-01-07T12:40:39;94217.66;;;3.92
31528;BMP280;10206;48.012;10.030;2024-01-07T12:43:06;94216.66;;;3.81
31528;BMP280;10206;48.012;10.030;2024-01-07T12:45:35;94217.94;;;3.80
31528;BMP280;10206;48.012;10.030;2024-01-07T12:48:01;94222.75;;;3.74
31528;BMP280;10206;48.012;10.030;2024-01-07T12:50:29;94227.91;;;3.65
31528;BMP280;10206;48.012;10.030;2024-01-07T12:52:57;94229.88;;;3.64
31528;BMP280;10206;48.012;10.030;2024-01-07T12:55:23;94223.66;;;3.77
31528;BMP280;10206;48.012;10.030;2024-01-07T12:57:49;94225.97;;;4.01
31528;BMP280;10206;48.012;10.030;2024-01-07T13:00:16;94229.00;;;3.98
31528;BMP280;10206;48.012;10.030;2024-01-07T13:02:43;94235.09;;;4.26
31528;BMP280;10206;48.012;10.030;2024-01-07T13:05:09;94234.13;;;3.80
31528;BMP280;10206;48.012;10.030;2024-01-07T13:07:36;94236.94;;;3.67
31528;BMP280;10206;48.012;10.030;2024-01-07T13:10:02;94237.97;;;3.64
31528;BMP280;10206;48.012;10.030;2024-01-07T13:12:28;94242.97;;;3.88
31528;BMP280;10206;48.012;10.030;2024-01-07T13:14:54;94239.84;;;3.77
31528;BMP280;10206;48.012;10.030;2024-01-07T13:17:20;94236.59;;;3.50
31528;BMP280;10206;48.012;10.030;2024-01-07T13:19:46;94248.03;;;3.43
31528;BMP280;10206;48.012;10.030;2024-01-07T13:22:12;94250.25;;;3.52
31528;BMP280;10206;48.012;10.030;2024-01-07T13:24:39;94251.41;;;3.85
31528;BMP280;10206;48.012;10.030;2024-01-07T13:27:07;94242.09;;;3.94
31528;BMP280;10206;48.012;10.030;2024-01-07T13:29:34;94256.69;;;3.98
31528;BMP280;10206;48.012;10.030;2024-01-07T13:32:01;94245.38;;;3.71
31528;BMP280;10206;48.012;10.030;2024-01-07T13:34:27;94246.47;;;3.76
31528;BMP280;10206;48.012;10.030;2024-01-07T13:36:53;94250.47;;;3.54
31528;BMP280;10206;48.012;10.030;2024-01-07T13:39:20;94255.78;;;3.67
31528;BMP280;10206;48.012;10.030;2024-01-07T13:41:47;94257.28;;;3.76
31528;BMP280;10206;48.012;10.030;2024-01-07T13:44:13;94264.97;;;3.93
31528;BMP280;10206;48.012;10.030;2024-01-07T13:46:46;94269.94;;;3.60
31528;BMP280;10206;48.012;10.030;2024-01-07T13:49:13;94273.88;;;3.59
31528;BMP280;10206;48.012;10.030;2024-01-07T13:51:40;94268.06;;;3.76
31528;BMP280;10206;48.012;10.030;2024-01-07T13:54:06;94267.38;;;3.34
31528;BMP280;10206;48.012;10.030;2024-01-07T13:56:33;94271.63;;;3.50
31528;BMP280;10206;48.012;10.030;2024-01-07T13:59:02;94274.19;;;3.56
31528;BMP280;10206;48.012;10.030;2024-01-07T14:01:31;94269.59;;;3.43
31528;BMP280;10206;48.012;10.030;2024-01-07T14:03:57;94280.53;;;3.58
31528;BMP280;10206;48.012;10.030;2024-01-07T14:06:24;94286.69;;;3.66
31528;BMP280;10206;48.012;10.030;2024-01-07T14:08:50;94281.03;;;3.57
31528;BMP280;10206;48.012;10.030;2024-01-07T14:11:16;94282.16;;;3.41
31528;BMP280;10206;48.012;10.030;2024-01-07T14:13:43;94288.84;;;3.47
31528;BMP280;10206;48.012;10.030;2024-01-07T14:16:11;94295.88;;;3.09